createdAt,value
2018-03-26T00:00:20.232Z,7.06
2018-03-26T00:02:47.744Z,7.08
2018-03-26T00:05:15.370Z,6.97
2018-03-26T00:07:43.866Z,6.98
2018-03-26T00:10:11.384Z,6.97
2018-03-26T00:12:39.770Z,6.82
2018-03-26T00:15:07.291Z,6.78
2018-03-26T00:17:35.001Z,6.62
2018-03-26T00:20:02.528Z,6.78
2018-03-26T00:22:30.035Z,6.79
2018-03-26T00:24:57.569Z,6.66
2018-03-26T00:27:25.997Z,6.61
2018-03-26T00:29:53.557Z,6.69
2018-03-26T00:32:21.078Z,6.53
2018-03-26T00:34:48.618Z,6.63
2018-03-26T00:37:16.161Z,6.22
2018-03-26T00:39:43.681Z,6.22
2018-03-26T00:42:11.645Z,6.07
2018-03-26T00:44:39.164Z,6.09
2018-03-26T00:47:06.966Z,6.01
2018-03-26T00:49:34.506Z,5.89
2018-03-26T00:52:02.018Z,5.86
2018-03-26T00:54:29.719Z,5.76
2018-03-26T00:56:57.274Z,5.78
2018-03-26T00:59:24.758Z,5.53
2018-03-26T01:01:52.297Z,5.51
2018-03-26T01:04:19.809Z,5.47
2018-03-26T01:06:47.358Z,5.81
2018-03-26T01:09:14.866Z,5.77
2018-03-26T01:11:42.381Z,5.80
2018-03-26T01:14:09.922Z,5.70
2018-03-26T01:16:37.444Z,5.83
2018-03-26T01:19:05.009Z,5.77
2018-03-26T01:21:32.693Z,5.77
2018-03-26T01:24:00.241Z,5.64
2018-03-26T01:26:27.796Z,5.41
2018-03-26T01:28:55.320Z,5.59
2018-03-26T01:31:23.101Z,5.48
2018-03-26T01:33:50.628Z,5.57
2018-03-26T01:36:18.138Z,5.55
2018-03-26T01:38:45.680Z,5.28
2018-03-26T01:41:13.193Z,5.35
2018-03-26T01:43:40.742Z,5.45
2018-03-26T01:46:08.266Z,5.38
2018-03-26T01:48:35.788Z,5.16
2018-03-26T01:51:03.338Z,5.29
2018-03-26T01:53:30.850Z,5.40
2018-03-26T01:55:58.597Z,5.45
2018-03-26T01:58:26.114Z,5.37
2018-03-26T02:00:53.624Z,5.23
2018-03-26T02:03:21.166Z,5.16
2018-03-26T02:05:48.678Z,5.25
2018-03-26T02:08:16.405Z,5.20
2018-03-26T02:10:43.914Z,5.16
2018-03-26T02:13:11.427Z,5.32
2018-03-26T02:15:38.980Z,5.50
2018-03-26T02:18:06.505Z,5.47
2018-03-26T02:20:34.299Z,5.65
2018-03-26T02:23:01.809Z,5.78
2018-03-26T02:25:29.329Z,5.73
2018-03-26T02:27:56.866Z,5.83
2018-03-26T02:30:24.378Z,5.87
2018-03-26T02:32:51.942Z,5.90
2018-03-26T02:35:19.457Z,6.07
2018-03-26T02:37:46.969Z,6.05
2018-03-26T02:40:14.508Z,6.23
2018-03-26T02:42:42.017Z,5.75
2018-03-26T02:45:09.691Z,5.96
2018-03-26T02:47:37.231Z,5.82
2018-03-26T02:50:04.742Z,6.04
2018-03-26T02:52:32.285Z,5.93
2018-03-26T02:54:59.802Z,5.89
2018-03-26T02:57:27.583Z,5.86
2018-03-26T02:59:55.106Z,5.99
2018-03-26T03:02:22.620Z,6.11
2018-03-26T03:04:50.162Z,6.04
2018-03-26T03:07:17.682Z,5.99
2018-03-26T03:09:45.237Z,6.07
2018-03-26T03:12:12.746Z,6.14
2018-03-26T03:14:40.720Z,6.03
2018-03-26T03:17:08.261Z,5.98
2018-03-26T03:19:35.787Z,6.07
2018-03-26T03:22:03.514Z,6.12
2018-03-26T03:24:31.033Z,6.20
2018-03-26T03:26:58.545Z,6.03
2018-03-26T03:29:26.086Z,6.02
2018-03-26T03:31:53.606Z,6.14
2018-03-26T03:34:21.273Z,6.11
2018-03-26T03:36:48.792Z,6.21
2018-03-26T03:39:16.314Z,6.14
2018-03-26T03:41:43.860Z,6.28
2018-03-26T03:44:11.373Z,6.29
2018-03-26T03:46:38.925Z,6.21
2018-03-26T03:49:06.456Z,6.06
2018-03-26T03:51:33.985Z,6.42
2018-03-26T03:54:01.523Z,6.35
2018-03-26T03:56:29.035Z,6.22
2018-03-26T03:58:56.785Z,6.29
2018-03-26T04:01:24.294Z,6.40
2018-03-26T04:03:51.804Z,6.39
2018-03-26T04:06:19.341Z,6.64
2018-03-26T04:08:46.866Z,6.62
2018-03-26T04:11:14.670Z,6.44
2018-03-26T04:13:42.181Z,6.57
2018-03-26T04:16:09.702Z,6.52
2018-03-26T04:18:38.005Z,6.63
2018-03-26T04:21:05.524Z,6.21
2018-03-26T04:23:33.195Z,6.23
2018-03-26T04:26:00.727Z,6.40
2018-03-26T04:28:28.242Z,6.54
2018-03-26T04:30:55.782Z,6.60
2018-03-26T04:33:23.298Z,6.44
2018-03-26T04:35:50.949Z,6.34
2018-03-26T04:38:18.461Z,6.53
2018-03-26T04:40:45.992Z,6.74
2018-03-26T04:43:13.528Z,6.78
2018-03-26T04:45:41.039Z,6.90
2018-03-26T04:48:08.610Z,6.92
2018-03-26T04:50:36.125Z,7.07
2018-03-26T04:53:03.637Z,7.05
2018-03-26T04:55:31.174Z,7.16
2018-03-26T04:57:58.682Z,7.06
2018-03-26T05:00:26.485Z,7.27
2018-03-26T05:02:53.993Z,7.30
2018-03-26T05:05:21.518Z,7.44
2018-03-26T05:07:49.056Z,7.63
2018-03-26T05:10:16.619Z,7.66
2018-03-26T05:12:44.169Z,7.61
2018-03-26T05:15:11.701Z,7.75
2018-03-26T05:17:39.222Z,7.85
2018-03-26T05:20:06.769Z,7.85
2018-03-26T05:22:34.285Z,7.96
2018-03-26T05:25:01.956Z,7.87
2018-03-26T05:27:29.489Z,8.06
2018-03-26T05:29:57.003Z,8.06
2018-03-26T05:32:24.729Z,8.18
2018-03-26T05:34:52.245Z,8.22
2018-03-26T05:37:19.797Z,8.19
2018-03-26T05:39:47.306Z,8.28
2018-03-26T05:42:14.853Z,8.31
2018-03-26T05:44:42.459Z,8.33
2018-03-26T05:47:09.974Z,8.25
2018-03-26T05:49:37.604Z,8.23
2018-03-26T05:52:05.173Z,8.49
2018-03-26T05:54:32.647Z,8.55
2018-03-26T05:57:00.190Z,8.57
2018-03-26T05:59:27.701Z,8.71
2018-03-26T06:01:55.683Z,8.44
2018-03-26T06:04:23.193Z,8.47
2018-03-26T06:06:50.714Z,8.79
2018-03-26T06:09:18.258Z,8.83
2018-03-26T06:11:45.765Z,9.03
2018-03-26T06:14:13.318Z,8.99
2018-03-26T06:16:52.617Z,9.11
2018-03-26T06:19:20.681Z,8.92
2018-03-26T06:21:48.649Z,9.10
2018-03-26T06:24:16.156Z,9.18
2018-03-26T06:26:43.696Z,9.02
2018-03-26T06:29:11.210Z,9.29
2018-03-26T06:31:38.859Z,9.39
2018-03-26T06:34:06.393Z,9.32
2018-03-26T06:36:39.617Z,9.15
2018-03-26T06:39:07.136Z,9.46
2018-03-26T06:41:34.657Z,9.57
2018-03-26T06:44:02.273Z,9.60
2018-03-26T06:46:29.748Z,9.49
2018-03-26T06:48:57.517Z,9.63
2018-03-26T06:51:25.030Z,9.64
2018-03-26T06:53:52.552Z,9.77
2018-03-26T06:56:20.089Z,9.68
2018-03-26T06:58:47.610Z,9.59
2018-03-26T07:01:15.297Z,9.97
2018-03-26T07:03:42.813Z,10.00
2018-03-26T07:06:10.323Z,9.96
2018-03-26T07:08:37.857Z,10.23
2018-03-26T07:11:05.467Z,10.25
2018-03-26T07:13:33.027Z,10.18
2018-03-26T07:16:00.538Z,10.21
2018-03-26T07:18:28.059Z,10.48
2018-03-26T07:20:55.682Z,10.50
2018-03-26T07:23:23.174Z,10.78
2018-03-26T07:25:50.733Z,10.75
2018-03-26T07:28:18.261Z,10.60
2018-03-26T07:30:45.782Z,10.55
2018-03-26T07:33:13.336Z,10.82
2018-03-26T07:35:40.854Z,11.08
2018-03-26T07:38:08.805Z,11.05
2018-03-26T07:40:36.325Z,11.25
2018-03-26T07:43:03.845Z,11.28
2018-03-26T07:45:31.414Z,11.35
2018-03-26T07:47:58.930Z,11.68
2018-03-26T07:50:26.474Z,11.73
2018-03-26T07:52:53.987Z,11.87
2018-03-26T07:55:21.509Z,11.80
2018-03-26T07:57:49.077Z,12.01
2018-03-26T08:00:16.652Z,11.94
2018-03-26T08:02:44.404Z,11.97
2018-03-26T08:05:11.941Z,12.14
2018-03-26T08:07:39.457Z,12.19
2018-03-26T08:10:07.186Z,12.33
2018-03-26T08:12:34.727Z,12.63
2018-03-26T08:15:02.314Z,12.56
2018-03-26T08:17:29.813Z,12.30
2018-03-26T08:19:57.331Z,12.68
2018-03-26T08:22:25.813Z,12.80
2018-03-26T08:24:53.889Z,12.77
2018-03-26T08:27:22.161Z,12.76
2018-03-26T08:29:49.706Z,12.78
2018-03-26T08:32:18.197Z,12.80
2018-03-26T08:34:46.171Z,12.79
2018-03-26T08:37:13.702Z,12.87
2018-03-26T08:39:41.579Z,13.05
2018-03-26T08:42:09.155Z,13.06
2018-03-26T08:44:36.719Z,13.29
2018-03-26T08:47:04.261Z,13.36
2018-03-26T08:49:31.783Z,13.39
2018-03-26T08:51:59.374Z,13.65
2018-03-26T08:54:27.873Z,13.73
2018-03-26T08:56:55.453Z,13.99
2018-03-26T08:59:23.008Z,14.05
2018-03-26T09:01:50.756Z,14.21
2018-03-26T09:04:19.135Z,14.79
2018-03-26T09:06:46.674Z,15.35
2018-03-26T09:09:14.202Z,15.23
2018-03-26T09:11:42.517Z,14.75
2018-03-26T09:14:11.035Z,14.34
2018-03-26T09:16:38.570Z,14.19
2018-03-26T09:19:06.190Z,14.14
2018-03-26T09:21:33.893Z,13.83
2018-03-26T09:24:01.417Z,14.16
2018-03-26T09:26:29.319Z,14.18
2018-03-26T09:28:56.914Z,13.85
2018-03-26T09:31:24.540Z,13.87
2018-03-26T09:33:52.203Z,14.10
2018-03-26T09:36:19.797Z,14.30
2018-03-26T09:38:48.652Z,14.12
2018-03-26T09:41:16.521Z,14.31
2018-03-26T09:43:44.389Z,14.07
2018-03-26T09:46:12.265Z,13.92
2018-03-26T09:48:40.732Z,13.99
2018-03-26T09:51:08.599Z,13.87
2018-03-26T09:53:36.669Z,13.64
2018-03-26T09:56:04.433Z,13.72
2018-03-26T09:58:32.207Z,13.87
2018-03-26T10:01:03.135Z,13.94
2018-03-26T10:03:30.921Z,13.85
2018-03-26T10:05:58.450Z,13.53
2018-03-26T10:08:26.228Z,13.32
2018-03-26T10:10:53.993Z,13.40
2018-03-26T10:13:21.854Z,13.46
2018-03-26T10:15:49.412Z,13.70
2018-03-26T10:18:16.936Z,13.67
2018-03-26T10:20:44.766Z,13.56
2018-03-26T10:23:12.312Z,13.75
2018-03-26T10:25:39.943Z,13.81
2018-03-26T10:28:08.826Z,13.91
2018-03-26T10:30:36.351Z,14.05
2018-03-26T10:33:03.924Z,13.82
2018-03-26T10:35:31.741Z,13.56
2018-03-26T10:37:59.298Z,13.99
2018-03-26T10:40:26.948Z,13.97
2018-03-26T10:42:54.597Z,13.89
2018-03-26T10:45:22.151Z,14.07
2018-03-26T10:47:49.713Z,14.44
2018-03-26T10:50:17.329Z,14.47
2018-03-26T10:52:45.262Z,14.52
2018-03-26T10:55:13.104Z,14.41
2018-03-26T10:57:40.672Z,14.50
2018-03-26T11:00:08.198Z,14.36
2018-03-26T11:02:36.115Z,14.19
2018-03-26T11:05:03.734Z,14.65
2018-03-26T11:07:31.625Z,14.57
2018-03-26T11:09:59.302Z,14.45
2018-03-26T11:12:27.255Z,13.80
2018-03-26T11:14:55.142Z,14.13
2018-03-26T11:17:23.209Z,14.19
2018-03-26T11:19:51.179Z,14.42
2018-03-26T11:22:19.319Z,14.33
2018-03-26T11:24:47.629Z,14.70
2018-03-26T11:27:23.055Z,15.03
2018-03-26T11:29:51.349Z,15.05
2018-03-26T11:32:19.254Z,14.51
2018-03-26T11:34:46.832Z,14.99
2018-03-26T11:37:14.642Z,15.47
2018-03-26T11:39:42.562Z,16.00
2018-03-26T11:42:10.892Z,16.15
2018-03-26T11:44:38.853Z,16.60
2018-03-26T11:47:07.234Z,16.91
2018-03-26T11:49:35.213Z,17.42
2018-03-26T11:52:03.479Z,17.63
2018-03-26T11:54:32.338Z,18.12
2018-03-26T11:57:01.059Z,18.45
2018-03-26T11:59:29.154Z,19.09
2018-03-26T12:01:57.731Z,20.23
2018-03-26T12:04:25.664Z,20.54
2018-03-26T12:06:53.947Z,21.15
2018-03-26T12:09:21.820Z,22.24
2018-03-26T12:11:49.882Z,22.15
2018-03-26T12:14:17.864Z,21.64
2018-03-26T12:16:45.833Z,21.11
2018-03-26T12:19:14.154Z,21.12
2018-03-26T12:21:42.077Z,20.50
2018-03-26T12:24:21.922Z,20.00
2018-03-26T12:26:50.016Z,19.29
2018-03-26T12:29:30.229Z,18.83
2018-03-26T12:31:58.262Z,18.64
2018-03-26T12:34:38.038Z,18.20
2018-03-26T12:37:06.752Z,18.13
2018-03-26T12:39:35.724Z,18.76
2018-03-26T12:42:04.780Z,18.71
2018-03-26T12:44:45.406Z,18.81
2018-03-26T12:47:13.792Z,18.47
2018-03-26T12:49:41.714Z,18.35
2018-03-26T12:52:23.342Z,18.54
2018-03-26T12:54:51.104Z,18.56
2018-03-26T12:57:31.005Z,18.22
2018-03-26T12:59:58.924Z,18.04
2018-03-26T13:02:28.292Z,18.32
2018-03-26T13:04:57.115Z,18.48
2018-03-26T13:07:24.994Z,18.20
2018-03-26T13:09:53.365Z,17.99
2018-03-26T13:12:21.838Z,17.40
2018-03-26T13:14:50.286Z,17.19
2018-03-26T13:17:18.185Z,16.90
2018-03-26T13:19:45.934Z,16.53
2018-03-26T13:22:15.388Z,16.07
2018-03-26T13:24:43.760Z,15.90
2018-03-26T13:27:11.599Z,15.79
2018-03-26T13:29:39.225Z,15.38
2018-03-26T13:32:07.175Z,15.31
2018-03-26T13:34:35.814Z,15.05
2018-03-26T13:37:03.781Z,14.82
2018-03-26T13:39:31.544Z,14.27
2018-03-26T13:41:59.540Z,14.32
2018-03-26T13:44:27.482Z,14.46
2018-03-26T13:46:55.555Z,14.12
2018-03-26T13:49:23.422Z,14.07
2018-03-26T13:51:51.287Z,13.65
2018-03-26T13:54:19.665Z,13.57
2018-03-26T13:56:48.863Z,13.56
2018-03-26T13:59:17.036Z,13.15
2018-03-26T14:01:44.659Z,13.29
2018-03-26T14:04:12.566Z,13.02
2018-03-26T14:06:41.005Z,13.28
2018-03-26T14:09:20.791Z,13.36
2018-03-26T14:12:00.272Z,13.24
2018-03-26T14:14:39.565Z,13.27
2018-03-26T14:17:19.617Z,13.33
2018-03-26T14:19:47.307Z,13.08
2018-03-26T14:22:15.131Z,12.77
2018-03-26T14:24:43.830Z,12.92
2018-03-26T14:27:11.609Z,12.97
2018-03-26T14:29:39.720Z,12.81
2018-03-26T14:32:07.431Z,12.96
2018-03-26T14:34:35.606Z,12.79
2018-03-26T14:37:03.258Z,12.85
2018-03-26T14:39:31.234Z,13.13
2018-03-26T14:41:59.203Z,13.14
2018-03-26T14:44:27.895Z,13.26
2018-03-26T14:46:57.003Z,13.44
2018-03-26T14:49:25.057Z,13.45
2018-03-26T14:51:53.038Z,13.33
2018-03-26T14:54:20.999Z,13.32
2018-03-26T14:56:49.085Z,13.45
2018-03-26T14:59:17.444Z,13.38
2018-03-26T15:01:45.412Z,13.56
2018-03-26T15:04:13.586Z,13.15
2018-03-26T15:06:41.458Z,13.31
2018-03-26T15:09:09.343Z,13.17
2018-03-26T15:11:37.596Z,13.11
2018-03-26T15:14:05.564Z,13.14
2018-03-26T15:16:33.637Z,12.96
2018-03-26T15:19:02.218Z,13.12
2018-03-26T15:21:30.047Z,13.29
2018-03-26T15:23:57.910Z,12.99
2018-03-26T15:26:25.614Z,12.98
2018-03-26T15:28:53.583Z,12.90
2018-03-26T15:31:21.655Z,12.77
2018-03-26T15:33:50.344Z,12.82
2018-03-26T15:36:18.898Z,12.77
2018-03-26T15:38:46.804Z,12.70
2018-03-26T15:41:15.206Z,12.49
2018-03-26T15:43:43.163Z,12.65
2018-03-26T15:46:11.823Z,12.65
2018-03-26T15:48:40.202Z,12.64
2018-03-26T15:51:08.723Z,12.53
2018-03-26T15:53:37.575Z,12.56
2018-03-26T15:56:05.468Z,12.55
2018-03-26T15:58:33.327Z,12.53
2018-03-26T16:01:01.462Z,12.51
2018-03-26T16:03:30.782Z,12.47
2018-03-26T16:05:58.658Z,12.36
2018-03-26T16:08:26.590Z,12.26
2018-03-26T16:10:54.687Z,12.36
2018-03-26T16:13:22.963Z,12.35
2018-03-26T16:15:50.829Z,12.38
2018-03-26T16:18:19.002Z,12.19
2018-03-26T16:20:47.289Z,12.39
2018-03-26T16:23:15.250Z,12.43
2018-03-26T16:25:43.652Z,12.48
2018-03-26T16:28:11.411Z,12.52
2018-03-26T16:30:39.155Z,12.49
2018-03-26T16:33:07.022Z,12.43
2018-03-26T16:35:34.952Z,12.37
2018-03-26T16:38:03.685Z,12.40
2018-03-26T16:40:31.544Z,12.34
2018-03-26T16:43:07.805Z,12.43
2018-03-26T16:45:35.674Z,12.50
2018-03-26T16:48:03.325Z,12.50
2018-03-26T16:50:31.815Z,12.51
2018-03-26T16:52:59.717Z,12.48
2018-03-26T16:55:27.856Z,12.40
2018-03-26T16:57:55.637Z,12.34
2018-03-26T17:00:23.998Z,12.37
2018-03-26T17:02:51.966Z,12.36
2018-03-26T17:05:19.781Z,12.25
2018-03-26T17:07:47.878Z,12.20
2018-03-26T17:10:16.361Z,12.14
2018-03-26T17:12:44.150Z,11.99
2018-03-26T17:15:11.917Z,11.87
2018-03-26T17:17:39.986Z,11.72
2018-03-26T17:20:10.201Z,11.58
2018-03-26T17:22:38.892Z,11.51
2018-03-26T17:25:06.964Z,11.34
2018-03-26T17:27:34.831Z,11.27
2018-03-26T17:30:03.209Z,11.16
2018-03-26T17:32:31.077Z,11.13
2018-03-26T17:34:58.841Z,11.05
2018-03-26T17:37:26.697Z,10.92
2018-03-26T17:39:54.573Z,10.70
2018-03-26T17:42:22.337Z,10.56
2018-03-26T17:44:50.203Z,10.45
2018-03-26T17:47:18.290Z,10.36
2018-03-26T17:49:46.139Z,10.31
2018-03-26T17:52:14.520Z,10.32
2018-03-26T17:54:42.718Z,10.27
2018-03-26T17:57:11.484Z,10.26
2018-03-26T17:59:40.168Z,10.26
2018-03-26T18:02:08.651Z,10.23
2018-03-26T18:04:37.540Z,10.21
2018-03-26T18:07:05.919Z,10.18
2018-03-26T18:09:35.171Z,10.09
2018-03-26T18:12:03.086Z,10.07
2018-03-26T18:14:30.951Z,10.04
2018-03-26T18:16:58.840Z,10.01
2018-03-26T18:19:26.684Z,10.03
2018-03-26T18:21:54.754Z,10.09
2018-03-26T18:24:22.622Z,10.12
2018-03-26T18:26:50.459Z,10.12
2018-03-26T18:29:18.867Z,10.09
2018-03-26T18:31:47.655Z,10.01
2018-03-26T18:34:15.521Z,9.93
2018-03-26T18:36:44.104Z,9.86
2018-03-26T18:39:12.382Z,9.82
2018-03-26T18:41:40.557Z,9.83
2018-03-26T18:44:08.422Z,9.95
2018-03-26T18:46:36.714Z,9.99
2018-03-26T18:49:04.669Z,10.01
2018-03-26T18:51:33.124Z,10.02
2018-03-26T18:54:01.721Z,9.99
2018-03-26T18:56:29.699Z,9.95
2018-03-26T18:58:57.465Z,9.90
2018-03-26T19:01:26.273Z,9.86
2018-03-26T19:03:54.324Z,9.85
2018-03-26T19:06:22.252Z,9.88
2018-03-26T19:08:50.364Z,9.91
2018-03-26T19:11:18.288Z,9.94
2018-03-26T19:13:46.198Z,9.92
2018-03-26T19:16:14.270Z,9.95
2018-03-26T19:18:42.140Z,9.93
2018-03-26T19:21:10.211Z,9.93
2018-03-26T19:23:38.195Z,9.92
2018-03-26T19:26:06.251Z,9.88
2018-03-26T19:28:34.116Z,9.74
2018-03-26T19:31:02.598Z,9.70
2018-03-26T19:33:30.464Z,9.78
2018-03-26T19:35:59.250Z,9.53
2018-03-26T19:38:28.040Z,9.45
2018-03-26T19:40:56.826Z,9.43
2018-03-26T19:43:25.206Z,9.20
2018-03-26T19:45:53.421Z,9.41
2018-03-26T19:48:21.655Z,9.35
2018-03-26T19:50:49.523Z,9.30
2018-03-26T19:53:17.388Z,9.21
2018-03-26T19:55:45.357Z,9.24
2018-03-26T19:58:13.270Z,9.24
2018-03-26T20:00:42.012Z,9.22
2018-03-26T20:03:09.981Z,8.98
2018-03-26T20:05:40.613Z,8.83
2018-03-26T20:08:08.600Z,8.94
2018-03-26T20:10:36.758Z,9.00
2018-03-26T20:13:05.235Z,9.00
2018-03-26T20:15:34.129Z,9.00
2018-03-26T20:18:01.992Z,9.16
2018-03-26T20:20:30.269Z,9.15
2018-03-26T20:22:58.238Z,9.24
2018-03-26T20:25:27.389Z,9.28
2018-03-26T20:27:55.909Z,9.39
2018-03-26T20:30:25.012Z,9.22
2018-03-26T20:32:52.981Z,9.18
2018-03-26T20:35:20.852Z,9.24
2018-03-26T20:37:49.021Z,9.28
2018-03-26T20:40:17.092Z,9.50
2018-03-26T20:42:44.930Z,9.40
2018-03-26T20:45:13.851Z,9.48
2018-03-26T20:47:41.694Z,9.41
2018-03-26T20:50:09.787Z,9.69
2018-03-26T20:52:37.655Z,9.65
2018-03-26T20:55:05.641Z,9.47
2018-03-26T20:57:33.432Z,9.53
2018-03-26T21:00:01.256Z,9.61
2018-03-26T21:02:29.426Z,9.51
2018-03-26T21:04:57.187Z,9.57
2018-03-26T21:07:25.365Z,9.52
2018-03-26T21:09:53.334Z,9.41
2018-03-26T21:12:22.082Z,9.62
2018-03-26T21:14:50.194Z,9.51
2018-03-26T21:17:18.061Z,9.57
2018-03-26T21:19:45.926Z,9.52
2018-03-26T21:22:13.848Z,9.42
2018-03-26T21:24:41.761Z,9.46
2018-03-26T21:27:09.887Z,9.38
2018-03-26T21:29:38.419Z,9.40
2018-03-26T21:32:06.396Z,9.19
2018-03-26T21:34:34.286Z,9.24
2018-03-26T21:37:02.242Z,9.12
2018-03-26T21:39:30.601Z,9.08
2018-03-26T21:41:58.382Z,9.00
2018-03-26T21:44:26.128Z,8.84
2018-03-26T21:46:54.008Z,8.74
2018-03-26T21:49:21.860Z,8.87
2018-03-26T21:51:50.649Z,8.65
2018-03-26T21:54:18.416Z,8.38
2018-03-26T21:56:46.381Z,8.62
2018-03-26T21:59:14.356Z,8.50
2018-03-26T22:01:42.120Z,8.75
2018-03-26T22:04:10.596Z,8.76
2018-03-26T22:06:38.463Z,8.81
2018-03-26T22:09:06.329Z,8.86
2018-03-26T22:11:33.964Z,8.86
2018-03-26T22:14:01.602Z,8.68
2018-03-26T22:16:29.181Z,8.45
2018-03-26T22:18:57.367Z,8.60
2018-03-26T22:21:25.132Z,8.64
2018-03-26T22:23:53.693Z,8.62
2018-03-26T22:26:21.497Z,8.67
2018-03-26T22:28:49.237Z,8.69
2018-03-26T22:31:16.809Z,8.83
2018-03-26T22:33:44.377Z,8.77
2018-03-26T22:36:11.920Z,8.79
2018-03-26T22:38:40.234Z,8.29
2018-03-26T22:41:08.074Z,8.21
2018-03-26T22:43:35.616Z,8.45
2018-03-26T22:46:03.138Z,8.45
2018-03-26T22:48:30.693Z,8.29
2018-03-26T22:50:58.325Z,8.22
2018-03-26T22:53:26.186Z,8.31
2018-03-26T22:55:53.755Z,8.29
2018-03-26T22:58:21.305Z,8.32
2018-03-26T23:00:48.849Z,8.17
2018-03-26T23:03:16.379Z,8.15
2018-03-26T23:05:44.290Z,8.03
2018-03-26T23:08:11.825Z,7.95
2018-03-26T23:10:39.338Z,7.91
2018-03-26T23:13:07.046Z,7.68
2018-03-26T23:15:34.569Z,7.75
2018-03-26T23:18:02.149Z,7.64
2018-03-26T23:20:29.742Z,7.74
2018-03-26T23:22:57.270Z,7.81
2018-03-26T23:25:24.787Z,7.79
2018-03-26T23:27:52.338Z,7.79
2018-03-26T23:30:19.857Z,7.69
2018-03-26T23:32:47.365Z,7.81
2018-03-26T23:35:14.939Z,7.56
2018-03-26T23:37:42.465Z,7.32
2018-03-26T23:40:09.981Z,7.82
2018-03-26T23:42:37.678Z,7.77
2018-03-26T23:45:05.199Z,7.70
2018-03-26T23:47:32.713Z,7.76
2018-03-26T23:50:00.433Z,7.81
2018-03-26T23:52:28.018Z,7.75
2018-03-26T23:54:55.574Z,7.69
2018-03-26T23:57:23.125Z,7.58
2018-03-26T23:59:50.654Z,7.29
